sensor_id;sensor_type;location;lat;lon;timestamp;pressure;altitude;pressure_sealevel;temperature;humidity
78845;BME280;68195;50.854;2.860;2023-04-28T00:01:24;101047.59;;;10.71;78.06
78845;BME280;68195;50.854;2.860;2023-04-28T00:03:50;101038.56;;;10.78;78.52
78845;BME280;68195;50.854;2.860;2023-04-28T00:06:19;101022.25;;;10.73;78.36
78845;BME280;68195;50.854;2.860;2023-04-28T00:08:45;101016.09;;;10.55;78.47
78845;BME280;68195;50.854;2.860;2023-04-28T00:11:10;100939.69;;;10.12;78.07
78845;BME280;68195;50.854;2.860;2023-04-28T00:13:36;100943.19;;;10.31;79.08
78845;BME280;68195;50.854;2.860;2023-04-28T00:16:02;101021.69;;;10.85;78.19
78845;BME280;68195;50.854;2.860;2023-04-28T00:18:27;101020.91;;;10.83;79.35
78845;BME280;68195;50.854;2.860;2023-04-28T00:20:54;100998.28;;;10.82;79.45
78845;BME280;68195;50.854;2.860;2023-04-28T00:23:21;100954.56;;;10.49;79.47
78845;BME280;68195;50.854;2.860;2023-04-28T00:25:54;100908.44;;;10.10;79.35
78845;BME280;68195;50.854;2.860;2023-04-28T00:28:20;101018.84;;;10.71;80.38
78845;BME280;68195;50.854;2.860;2023-04-28T00:30:46;101019.50;;;10.76;80.96
78845;BME280;68195;50.854;2.860;2023-04-28T00:33:11;100909.09;;;10.15;80.74
78845;BME280;68195;50.854;2.860;2023-04-28T00:35:40;100957.03;;;10.52;81.02
78845;BME280;68195;50.854;2.860;2023-04-28T00:38:06;100936.06;;;10.54;81.87
78845;BME280;68195;50.854;2.860;2023-04-28T00:40:36;100920.59;;;10.68;81.27
78845;BME280;68195;50.854;2.860;2023-04-28T00:43:02;100856.06;;;10.34;81.63
78845;BME280;68195;50.854;2.860;2023-04-28T00:45:28;100870.47;;;10.60;81.88
78845;BME280;68195;50.854;2.860;2023-04-28T00:47:54;100805.09;;;10.25;82.19
78845;BME280;68195;50.854;2.860;2023-04-28T00:50:20;100789.66;;;10.20;82.78
78845;BME280;68195;50.854;2.860;2023-04-28T00:52:46;100784.94;;;10.10;82.98
78845;BME280;68195;50.854;2.860;2023-04-28T00:55:14;100867.69;;;10.45;82.98
78845;BME280;68195;50.854;2.860;2023-04-28T00:57:40;100906.28;;;10.58;83.28
78845;BME280;68195;50.854;2.860;2023-04-28T01:00:09;100848.13;;;10.16;82.62
78845;BME280;68195;50.854;2.860;2023-04-28T01:02:37;100884.94;;;10.31;83.04
78845;BME280;68195;50.854;2.860;2023-04-28T01:05:03;100914.75;;;10.44;83.40
78845;BME280;68195;50.854;2.860;2023-04-28T01:07:29;100956.66;;;10.79;83.73
78845;BME280;68195;50.854;2.860;2023-04-28T01:09:54;100937.47;;;10.80;83.34
78845;BME280;68195;50.854;2.860;2023-04-28T01:12:21;100840.66;;;10.27;83.92
78845;BME280;68195;50.854;2.860;2023-04-28T01:14:47;100831.25;;;10.23;83.97
78845;BME280;68195;50.854;2.860;2023-04-28T01:17:15;100888.75;;;10.60;84.28
78845;BME280;68195;50.854;2.860;2023-04-28T01:19:41;100878.53;;;10.55;83.87
78845;BME280;68195;50.854;2.860;2023-04-28T01:22:09;100927.56;;;10.86;83.91
78845;BME280;68195;50.854;2.860;2023-04-28T01:24:41;100880.03;;;10.61;84.51
78845;BME280;68195;50.854;2.860;2023-04-28T01:27:09;100838.22;;;10.43;85.07
78845;BME280;68195;50.854;2.860;2023-04-28T01:29:39;100828.81;;;10.39;84.64
78845;BME280;68195;50.854;2.860;2023-04-28T01:32:05;100851.53;;;10.37;84.99
78845;BME280;68195;50.854;2.860;2023-04-28T01:34:32;100847.84;;;10.22;85.24
78845;BME280;68195;50.854;2.860;2023-04-28T01:37:00;100927.84;;;10.80;85.70
78845;BME280;68195;50.854;2.860;2023-04-28T01:39:26;100861.16;;;10.37;85.59
78845;BME280;68195;50.854;2.860;2023-04-28T01:41:53;100880.56;;;10.67;85.41
78845;BME280;68195;50.854;2.860;2023-04-28T01:44:19;100881.94;;;10.57;85.60
78845;BME280;68195;50.854;2.860;2023-04-28T01:46:44;100811.03;;;10.29;85.79
78845;BME280;68195;50.854;2.860;2023-04-28T01:49:09;100900.81;;;10.99;86.08
78845;BME280;68195;50.854;2.860;2023-04-28T01:51:35;100900.75;;;11.00;85.53
78845;BME280;68195;50.854;2.860;2023-04-28T01:54:00;100898.13;;;11.00;86.38
78845;BME280;68195;50.854;2.860;2023-04-28T01:56:27;100901.81;;;10.96;86.07
78845;BME280;68195;50.854;2.860;2023-04-28T01:58:55;100824.75;;;10.51;86.25
78845;BME280;68195;50.854;2.860;2023-04-28T02:01:23;100846.69;;;10.66;86.64
78845;BME280;68195;50.854;2.860;2023-04-28T02:03:54;100830.69;;;10.55;86.40
78845;BME280;68195;50.854;2.860;2023-04-28T02:06:20;100894.50;;;10.85;86.68
78845;BME280;68195;50.854;2.860;2023-04-28T02:08:48;100907.28;;;10.92;86.84
78845;BME280;68195;50.854;2.860;2023-04-28T02:11:15;100900.91;;;10.97;87.19
78845;BME280;68195;50.854;2.860;2023-04-28T02:13:43;100855.22;;;10.70;87.59
78845;BME280;68195;50.854;2.860;2023-04-28T02:16:08;100891.59;;;10.92;87.15
78845;BME280;68195;50.854;2.860;2023-04-28T02:18:34;100873.38;;;10.90;87.44
78845;BME280;68195;50.854;2.860;2023-04-28T02:21:09;100898.84;;;11.04;87.81
78845;BME280;68195;50.854;2.860;2023-04-28T02:23:35;100892.75;;;11.03;87.48
78845;BME280;68195;50.854;2.860;2023-04-28T02:26:01;100872.47;;;10.91;87.21
78845;BME280;68195;50.854;2.860;2023-04-28T02:28:28;100844.63;;;10.90;88.15
78845;BME280;68195;50.854;2.860;2023-04-28T02:31:03;100830.97;;;10.85;87.84
78845;BME280;68195;50.854;2.860;2023-04-28T02:33:28;100825.13;;;10.80;87.71
78845;BME280;68195;50.854;2.860;2023-04-28T02:36:03;100864.09;;;11.02;88.51
78845;BME280;68195;50.854;2.860;2023-04-28T02:38:28;100720.09;;;10.19;88.29
78845;BME280;68195;50.854;2.860;2023-04-28T02:41:04;100759.88;;;10.43;88.43
78845;BME280;68195;50.854;2.860;2023-04-28T02:43:34;100874.63;;;11.18;88.54
78845;BME280;68195;50.854;2.860;2023-04-28T02:46:01;100781.78;;;10.58;88.53
78845;BME280;68195;50.854;2.860;2023-04-28T02:48:31;100799.13;;;10.77;89.28
78845;BME280;68195;50.854;2.860;2023-04-28T02:50:59;100806.69;;;10.83;88.96
78845;BME280;68195;50.854;2.860;2023-04-28T02:53:25;100804.59;;;10.90;90.00
78845;BME280;68195;50.854;2.860;2023-04-28T02:55:53;100876.53;;;11.32;90.28
78845;BME280;68195;50.854;2.860;2023-04-28T02:58:18;100870.44;;;11.31;89.61
78845;BME280;68195;50.854;2.860;2023-04-28T03:00:44;100835.41;;;11.18;89.80
78845;BME280;68195;50.854;2.860;2023-04-28T03:03:09;100863.00;;;11.41;89.79
78845;BME280;68195;50.854;2.860;2023-04-28T03:05:35;100825.97;;;11.15;89.75
78845;BME280;68195;50.854;2.860;2023-04-28T03:08:02;100862.75;;;11.45;89.87
78845;BME280;68195;50.854;2.860;2023-04-28T03:10:28;100846.63;;;11.37;90.26
78845;BME280;68195;50.854;2.860;2023-04-28T03:12:53;100856.94;;;11.40;90.16
78845;BME280;68195;50.854;2.860;2023-04-28T03:15:19;100813.59;;;11.19;90.29
78845;BME280;68195;50.854;2.860;2023-04-28T03:17:44;100863.88;;;11.57;90.25
78845;BME280;68195;50.854;2.860;2023-04-28T03:20:10;100787.59;;;11.16;90.69
78845;BME280;68195;50.854;2.860;2023-04-28T03:22:35;100852.25;;;11.63;90.48
78845;BME280;68195;50.854;2.860;2023-04-28T03:25:01;100823.59;;;11.44;90.92
78845;BME280;68195;50.854;2.860;2023-04-28T03:27:27;100860.94;;;11.63;90.36
78845;BME280;68195;50.854;2.860;2023-04-28T03:29:52;100846.06;;;11.48;90.79
78845;BME280;68195;50.854;2.860;2023-04-28T03:32:18;100857.31;;;11.66;90.93
78845;BME280;68195;50.854;2.860;2023-04-28T03:34:45;100726.16;;;10.91;90.86
78845;BME280;68195;50.854;2.860;2023-04-28T03:37:11;100796.59;;;11.27;90.67
78845;BME280;68195;50.854;2.860;2023-04-28T03:39:39;100831.50;;;11.60;91.02
78845;BME280;68195;50.854;2.860;2023-04-28T03:42:04;100831.66;;;11.57;90.97
78845;BME280;68195;50.854;2.860;2023-04-28T03:44:32;100822.44;;;11.49;91.05
78845;BME280;68195;50.854;2.860;2023-04-28T03:46:57;100724.13;;;10.96;90.99
78845;BME280;68195;50.854;2.860;2023-04-28T03:49:23;100803.53;;;11.44;91.05
78845;BME280;68195;50.854;2.860;2023-04-28T03:51:48;100790.88;;;11.37;90.58
78845;BME280;68195;50.854;2.860;2023-04-28T03:54:17;100783.25;;;11.32;91.63
78845;BME280;68195;50.854;2.860;2023-04-28T03:56:43;100772.28;;;11.25;90.50
78845;BME280;68195;50.854;2.860;2023-04-28T03:59:08;100856.44;;;11.83;90.74
78845;BME280;68195;50.854;2.860;2023-04-28T04:01:36;100811.56;;;11.57;90.56
78845;BME280;68195;50.854;2.860;2023-04-28T04:04:01;100789.78;;;11.41;91.27
78845;BME280;68195;50.854;2.860;2023-04-28T04:06:27;100757.44;;;11.26;91.05
78845;BME280;68195;50.854;2.860;2023-04-28T04:08:54;100743.84;;;11.19;90.65
78845;BME280;68195;50.854;2.860;2023-04-28T04:11:20;100789.84;;;11.39;90.35
78845;BME280;68195;50.854;2.860;2023-04-28T04:13:48;100827.22;;;11.75;90.87
78845;BME280;68195;50.854;2.860;2023-04-28T04:16:15;100809.13;;;11.54;90.96
78845;BME280;68195;50.854;2.860;2023-04-28T04:18:43;100823.31;;;11.66;90.83
78845;BME280;68195;50.854;2.860;2023-04-28T04:21:13;100811.69;;;11.72;90.68
78845;BME280;68195;50.854;2.860;2023-04-28T04:23:39;100805.34;;;11.60;90.15
78845;BME280;68195;50.854;2.860;2023-04-28T04:26:06;100850.59;;;11.95;91.41
78845;BME280;68195;50.854;2.860;2023-04-28T04:28:32;100839.13;;;11.80;91.27
78845;BME280;68195;50.854;2.860;2023-04-28T04:31:00;100841.19;;;11.91;89.98
78845;BME280;68195;50.854;2.860;2023-04-28T04:33:26;100856.41;;;12.00;91.16
78845;BME280;68195;50.854;2.860;2023-04-28T04:35:53;100805.63;;;11.71;91.00
78845;BME280;68195;50.854;2.860;2023-04-28T04:38:18;100864.94;;;12.04;91.29
78845;BME280;68195;50.854;2.860;2023-04-28T04:40:43;100761.84;;;11.41;91.73
78845;BME280;68195;50.854;2.860;2023-04-28T04:43:09;100862.41;;;12.02;91.83
78845;BME280;68195;50.854;2.860;2023-04-28T04:45:37;100797.16;;;11.66;92.34
78845;BME280;68195;50.854;2.860;2023-04-28T04:48:03;100848.28;;;11.89;91.88
78845;BME280;68195;50.854;2.860;2023-04-28T04:50:28;100879.38;;;12.11;92.01
78845;BME280;68195;50.854;2.860;2023-04-28T04:52:56;100767.66;;;11.46;91.42
78845;BME280;68195;50.854;2.860;2023-04-28T04:55:22;100872.38;;;12.11;91.80
78845;BME280;68195;50.854;2.860;2023-04-28T04:57:50;100877.44;;;12.15;91.58
78845;BME280;68195;50.854;2.860;2023-04-28T05:00:18;100868.75;;;12.14;91.53
78845;BME280;68195;50.854;2.860;2023-04-28T05:02:46;100805.28;;;11.77;91.17
78845;BME280;68195;50.854;2.860;2023-04-28T05:05:14;100828.28;;;11.88;92.04
78845;BME280;68195;50.854;2.860;2023-04-28T05:07:39;100866.41;;;12.09;91.50
78845;BME280;68195;50.854;2.860;2023-04-28T05:10:07;100877.28;;;12.18;91.43
78845;BME280;68195;50.854;2.860;2023-04-28T05:12:36;100861.38;;;12.05;91.27
78845;BME280;68195;50.854;2.860;2023-04-28T05:15:02;100861.56;;;12.02;91.50
78845;BME280;68195;50.854;2.860;2023-04-28T05:17:27;100776.56;;;11.60;91.29
78845;BME280;68195;50.854;2.860;2023-04-28T05:19:55;100801.41;;;11.68;90.64
78845;BME280;68195;50.854;2.860;2023-04-28T05:22:20;100842.81;;;11.94;90.69
78845;BME280;68195;50.854;2.860;2023-04-28T05:24:45;100894.25;;;12.26;91.08
78845;BME280;68195;50.854;2.860;2023-04-28T05:27:11;100899.16;;;12.32;91.63
78845;BME280;68195;50.854;2.860;2023-04-28T05:29:36;100897.56;;;12.30;91.28
78845;BME280;68195;50.854;2.860;2023-04-28T05:32:04;100832.63;;;11.87;93.31
78845;BME280;68195;50.854;2.860;2023-04-28T05:34:32;100889.59;;;12.16;91.23
78845;BME280;68195;50.854;2.860;2023-04-28T05:36:57;100860.53;;;12.04;90.59
78845;BME280;68195;50.854;2.860;2023-04-28T05:39:22;100905.00;;;12.38;92.11
78845;BME280;68195;50.854;2.860;2023-04-28T05:41:47;100861.25;;;12.08;91.62
78845;BME280;68195;50.854;2.860;2023-04-28T05:44:13;100911.09;;;12.38;92.38
78845;BME280;68195;50.854;2.860;2023-04-28T05:46:38;100907.53;;;12.39;92.75
78845;BME280;68195;50.854;2.860;2023-04-28T05:49:03;100912.69;;;12.41;92.56
78845;BME280;68195;50.854;2.860;2023-04-28T05:51:29;100919.59;;;12.42;92.06
78845;BME280;68195;50.854;2.860;2023-04-28T05:53:54;100916.06;;;12.43;92.70
78845;BME280;68195;50.854;2.860;2023-04-28T05:56:19;100913.19;;;12.47;91.90
78845;BME280;68195;50.854;2.860;2023-04-28T05:58:50;100918.34;;;12.49;92.25
78845;BME280;68195;50.854;2.860;2023-04-28T06:01:16;100887.28;;;12.27;92.14
78845;BME280;68195;50.854;2.860;2023-04-28T06:03:42;100836.22;;;12.02;91.58
78845;BME280;68195;50.854;2.860;2023-04-28T06:06:10;100917.16;;;12.55;91.95
78845;BME280;68195;50.854;2.860;2023-04-28T06:08:35;100861.66;;;12.16;92.14
78845;BME280;68195;50.854;2.860;2023-04-28T06:11:01;100917.06;;;12.56;91.95
78845;BME280;68195;50.854;2.860;2023-04-28T06:13:26;100919.53;;;12.59;92.26
78845;BME280;68195;50.854;2.860;2023-04-28T06:15:52;100914.97;;;12.63;92.08
78845;BME280;68195;50.854;2.860;2023-04-28T06:18:17;100873.91;;;12.31;92.62
78845;BME280;68195;50.854;2.860;2023-04-28T06:20:47;100887.44;;;12.40;92.17
78845;BME280;68195;50.854;2.860;2023-04-28T06:23:12;100871.88;;;12.37;92.71
78845;BME280;68195;50.854;2.860;2023-04-28T06:25:38;100916.94;;;12.59;92.81
78845;BME280;68195;50.854;2.860;2023-04-28T06:28:03;100918.59;;;12.60;92.49
78845;BME280;68195;50.854;2.860;2023-04-28T06:30:32;100919.09;;;12.67;92.19
78845;BME280;68195;50.854;2.860;2023-04-28T06:32:58;100916.56;;;12.65;92.35
78845;BME280;68195;50.854;2.860;2023-04-28T06:35:24;100937.59;;;12.80;92.41
78845;BME280;68195;50.854;2.860;2023-04-28T06:37:49;100933.97;;;12.82;92.29
78845;BME280;68195;50.854;2.860;2023-04-28T06:40:14;100935.75;;;12.82;92.25
78845;BME280;68195;50.854;2.860;2023-04-28T06:42:40;100917.81;;;12.74;91.72
78845;BME280;68195;50.854;2.860;2023-04-28T06:45:05;100938.94;;;12.87;92.57
78845;BME280;68195;50.854;2.860;2023-04-28T06:47:31;100922.91;;;12.77;92.88
78845;BME280;68195;50.854;2.860;2023-04-28T06:49:56;100933.69;;;12.87;92.73
78845;BME280;68195;50.854;2.860;2023-04-28T06:52:24;100935.22;;;12.91;92.30
78845;BME280;68195;50.854;2.860;2023-04-28T06:54:52;100920.78;;;12.84;92.17
78845;BME280;68195;50.854;2.860;2023-04-28T06:57:20;100907.59;;;12.85;92.64
78845;BME280;68195;50.854;2.860;2023-04-28T06:59:45;100934.78;;;12.99;92.28
78845;BME280;68195;50.854;2.860;2023-04-28T07:02:13;100902.63;;;12.81;92.62
78845;BME280;68195;50.854;2.860;2023-04-28T07:04:38;100928.53;;;13.01;91.76
78845;BME280;68195;50.854;2.860;2023-04-28T07:07:06;100899.06;;;12.82;92.82
78845;BME280;68195;50.854;2.860;2023-04-28T07:09:34;100927.50;;;13.04;92.40
78845;BME280;68195;50.854;2.860;2023-04-28T07:12:00;100937.06;;;13.05;92.07
78845;BME280;68195;50.854;2.860;2023-04-28T07:14:28;100881.31;;;12.71;92.86
78845;BME280;68195;50.854;2.860;2023-04-28T07:16:56;100937.84;;;13.07;92.81
78845;BME280;68195;50.854;2.860;2023-04-28T07:19:21;100936.97;;;13.06;92.04
78845;BME280;68195;50.854;2.860;2023-04-28T07:21:49;100932.47;;;13.08;91.89
78845;BME280;68195;50.854;2.860;2023-04-28T07:24:14;100939.44;;;13.09;92.07
78845;BME280;68195;50.854;2.860;2023-04-28T07:26:39;100848.38;;;12.51;91.80
78845;BME280;68195;50.854;2.860;2023-04-28T07:29:05;100937.56;;;13.11;91.42
78845;BME280;68195;50.854;2.860;2023-04-28T07:31:30;100909.69;;;12.95;91.49
78845;BME280;68195;50.854;2.860;2023-04-28T07:33:58;100950.00;;;13.08;91.86
78845;BME280;68195;50.854;2.860;2023-04-28T07:36:23;100931.00;;;12.88;91.33
78845;BME280;68195;50.854;2.860;2023-04-28T07:38:49;100950.56;;;13.13;91.03
78845;BME280;68195;50.854;2.860;2023-04-28T07:41:15;100943.16;;;13.05;90.56
78845;BME280;68195;50.854;2.860;2023-04-28T07:43:41;100867.03;;;12.61;90.10
78845;BME280;68195;50.854;2.860;2023-04-28T07:46:06;100953.94;;;13.15;90.31
78845;BME280;68195;50.854;2.860;2023-04-28T07:48:33;100966.13;;;13.16;90.39
78845;BME280;68195;50.854;2.860;2023-04-28T07:50:58;100937.06;;;13.05;90.19
78845;BME280;68195;50.854;2.860;2023-04-28T07:53:24;100964.28;;;13.18;89.57
78845;BME280;68195;50.854;2.860;2023-04-28T07:55:49;100867.97;;;12.60;90.06
78845;BME280;68195;50.854;2.860;2023-04-28T07:58:17;100965.94;;;13.19;89.32
78845;BME280;68195;50.854;2.860;2023-04-28T08:00:43;100883.69;;;12.60;88.86
78845;BME280;68195;50.854;2.860;2023-04-28T08:03:08;100974.00;;;13.16;88.88
78845;BME280;68195;50.854;2.860;2023-04-28T08:05:37;100959.03;;;13.02;88.96
78845;BME280;68195;50.854;2.860;2023-04-28T08:08:03;100967.00;;;13.01;88.19
78845;BME280;68195;50.854;2.860;2023-04-28T08:10:31;100841.50;;;12.18;88.23
78845;BME280;68195;50.854;2.860;2023-04-28T08:12:56;100984.84;;;13.10;88.35
78845;BME280;68195;50.854;2.860;2023-04-28T08:15:21;100892.91;;;12.51;88.71
78845;BME280;68195;50.854;2.860;2023-04-28T08:17:47;100982.41;;;13.07;88.28
78845;BME280;68195;50.854;2.860;2023-04-28T08:20:12;100988.41;;;13.09;88.16
78845;BME280;68195;50.854;2.860;2023-04-28T08:22:39;100989.66;;;13.02;88.60
78845;BME280;68195;50.854;2.860;2023-04-28T08:25:06;100943.88;;;12.77;88.59
78845;BME280;68195;50.854;2.860;2023-04-28T08:27:31;101002.00;;;13.00;88.76
78845;BME280;68195;50.854;2.860;2023-04-28T08:29:58;100998.63;;;12.98;88.87
78845;BME280;68195;50.854;2.860;2023-04-28T08:32:23;100996.78;;;13.00;88.85
78845;BME280;68195;50.854;2.860;2023-04-28T08:34:51;101000.25;;;13.00;88.67
78845;BME280;68195;50.854;2.860;2023-04-28T08:37:19;100973.00;;;12.87;88.26
78845;BME280;68195;50.854;2.860;2023-04-28T08:39:44;100993.22;;;13.01;87.88
78845;BME280;68195;50.854;2.860;2023-04-28T08:42:09;101003.53;;;13.04;88.23
78845;BME280;68195;50.854;2.860;2023-04-28T08:44:38;100892.00;;;12.20;88.65
78845;BME280;68195;50.854;2.860;2023-04-28T08:47:13;101016.66;;;13.04;88.35
78845;BME280;68195;50.854;2.860;2023-04-28T08:49:38;101015.81;;;13.03;88.23
78845;BME280;68195;50.854;2.860;2023-04-28T08:52:11;101027.06;;;13.05;87.76
78845;BME280;68195;50.854;2.860;2023-04-28T08:54:38;101020.78;;;13.08;87.19
78845;BME280;68195;50.854;2.860;2023-04-28T08:57:07;101022.22;;;13.13;86.04
78845;BME280;68195;50.854;2.860;2023-04-28T08:59:33;101016.56;;;13.05;86.53
78845;BME280;68195;50.854;2.860;2023-04-28T09:01:58;101015.19;;;13.14;86.88
78845;BME280;68195;50.854;2.860;2023-04-28T09:04:24;101014.88;;;13.20;86.65
78845;BME280;68195;50.854;2.860;2023-04-28T09:06:49;101015.50;;;13.24;85.72
78845;BME280;68195;50.854;2.860;2023-04-28T09:09:27;100955.69;;;12.84;85.57
78845;BME280;68195;50.854;2.860;2023-04-28T09:11:58;100970.75;;;12.97;85.93
78845;BME280;68195;50.854;2.860;2023-04-28T09:14:25;101027.22;;;13.34;85.69
78845;BME280;68195;50.854;2.860;2023-04-28T09:16:51;100987.03;;;13.18;85.51
78845;BME280;68195;50.854;2.860;2023-04-28T09:19:17;101026.34;;;13.49;85.00
78845;BME280;68195;50.854;2.860;2023-04-28T09:24:28;101024.25;;;13.70;84.60
78845;BME280;68195;50.854;2.860;2023-04-28T09:26:54;101021.19;;;13.78;84.99
78845;BME280;68195;50.854;2.860;2023-04-28T09:29:20;101019.53;;;13.91;83.95
78845;BME280;68195;50.854;2.860;2023-04-28T09:31:45;100984.88;;;13.70;83.91
78845;BME280;68195;50.854;2.860;2023-04-28T09:34:10;101027.78;;;14.00;84.11
78845;BME280;68195;50.854;2.860;2023-04-28T09:36:38;100988.66;;;13.81;83.16
78845;BME280;68195;50.854;2.860;2023-04-28T09:39:04;101004.06;;;13.87;82.28
78845;BME280;68195;50.854;2.860;2023-04-28T09:41:36;101036.22;;;14.05;82.66
78845;BME280;68195;50.854;2.860;2023-04-28T09:44:13;101040.44;;;14.07;82.49
78845;BME280;68195;50.854;2.860;2023-04-28T09:46:40;101043.06;;;14.07;81.91
78845;BME280;68195;50.854;2.860;2023-04-28T09:49:06;100981.16;;;13.74;81.77
78845;BME280;68195;50.854;2.860;2023-04-28T09:51:32;100983.56;;;13.78;82.23
78845;BME280;68195;50.854;2.860;2023-04-28T09:54:00;100998.97;;;13.84;81.87
78845;BME280;68195;50.854;2.860;2023-04-28T09:56:27;100971.09;;;13.67;81.95
78845;BME280;68195;50.854;2.860;2023-04-28T09:58:57;101044.94;;;14.05;82.30
78845;BME280;68195;50.854;2.860;2023-04-28T10:01:31;101047.13;;;14.13;81.93
78845;BME280;68195;50.854;2.860;2023-04-28T10:03:57;100998.13;;;13.83;81.70
78845;BME280;68195;50.854;2.860;2023-04-28T10:06:24;101034.53;;;14.04;82.22
78845;BME280;68195;50.854;2.860;2023-04-28T10:08:49;101052.56;;;14.24;81.46
78845;BME280;68195;50.854;2.860;2023-04-28T10:11:17;101009.31;;;13.87;81.70
78845;BME280;68195;50.854;2.860;2023-04-28T10:13:45;100918.06;;;13.31;81.87
78845;BME280;68195;50.854;2.860;2023-04-28T10:16:11;101027.69;;;14.01;82.09
78845;BME280;68195;50.854;2.860;2023-04-28T10:18:42;100989.84;;;13.75;82.42
78845;BME280;68195;50.854;2.860;2023-04-28T10:21:07;100987.53;;;13.85;81.95
78845;BME280;68195;50.854;2.860;2023-04-28T10:26:18;101068.34;;;14.39;81.40
78845;BME280;68195;50.854;2.860;2023-04-28T10:28:47;100960.09;;;13.60;81.77
78845;BME280;68195;50.854;2.860;2023-04-28T10:31:19;101067.97;;;14.30;82.05
78845;BME280;68195;50.854;2.860;2023-04-28T10:33:46;101070.59;;;14.30;81.88
78845;BME280;68195;50.854;2.860;2023-04-28T10:36:50;101070.13;;;14.24;82.30
78845;BME280;68195;50.854;2.860;2023-04-28T10:39:17;101088.41;;;14.25;82.12
78845;BME280;68195;50.854;2.860;2023-04-28T10:41:45;101077.34;;;14.20;83.05
78845;BME280;68195;50.854;2.860;2023-04-28T10:44:41;101073.03;;;14.19;83.06
78845;BME280;68195;50.854;2.860;2023-04-28T10:47:07;101077.91;;;14.25;82.43
78845;BME280;68195;50.854;2.860;2023-04-28T10:55:30;101080.91;;;14.33;81.74
78845;BME280;68195;50.854;2.860;2023-04-28T11:00:40;101090.38;;;14.36;81.89
78845;BME280;68195;50.854;2.860;2023-04-28T11:03:06;101083.16;;;14.40;81.95
78845;BME280;68195;50.854;2.860;2023-04-28T11:05:32;101087.50;;;14.41;82.02
78845;BME280;68195;50.854;2.860;2023-04-28T11:11:20;101070.78;;;14.42;81.41
78845;BME280;68195;50.854;2.860;2023-04-28T11:13:46;101015.22;;;14.05;82.13
78845;BME280;68195;50.854;2.860;2023-04-28T11:16:13;101094.81;;;14.50;82.52
78845;BME280;68195;50.854;2.860;2023-04-28T11:21:15;101092.19;;;14.50;82.27
78845;BME280;68195;50.854;2.860;2023-04-28T11:23:41;101092.19;;;14.50;82.19
78845;BME280;68195;50.854;2.860;2023-04-28T11:26:13;101094.63;;;14.53;81.42
78845;BME280;68195;50.854;2.860;2023-04-28T11:28:48;101042.75;;;14.28;81.80
78845;BME280;68195;50.854;2.860;2023-04-28T11:31:15;101091.00;;;14.55;82.32
78845;BME280;68195;50.854;2.860;2023-04-28T11:36:39;101097.44;;;14.50;82.23
78845;BME280;68195;50.854;2.860;2023-04-28T11:39:08;101082.25;;;14.41;82.10
78845;BME280;68195;50.854;2.860;2023-04-28T11:41:36;101114.25;;;14.47;82.42
78845;BME280;68195;50.854;2.860;2023-04-28T11:44:17;101109.63;;;14.51;82.45
78845;BME280;68195;50.854;2.860;2023-04-28T11:46:48;101077.72;;;14.28;83.36
78845;BME280;68195;50.854;2.860;2023-04-28T11:49:23;101043.34;;;14.03;83.51
78845;BME280;68195;50.854;2.860;2023-04-28T11:51:53;101102.97;;;14.31;82.80
78845;BME280;68195;50.854;2.860;2023-04-28T11:54:23;101116.22;;;14.44;83.40
78845;BME280;68195;50.854;2.860;2023-04-28T11:56:51;101112.28;;;14.36;83.40
78845;BME280;68195;50.854;2.860;2023-04-28T11:59:18;101120.72;;;14.42;83.32
78845;BME280;68195;50.854;2.860;2023-04-28T12:01:49;101116.00;;;14.47;83.06
78845;BME280;68195;50.854;2.860;2023-04-28T12:07:08;101109.38;;;14.41;83.63
78845;BME280;68195;50.854;2.860;2023-04-28T12:09:35;101116.13;;;14.45;83.23
78845;BME280;68195;50.854;2.860;2023-04-28T12:12:09;101112.63;;;14.45;83.51
78845;BME280;68195;50.854;2.860;2023-04-28T12:17:27;101112.88;;;14.56;82.23
78845;BME280;68195;50.854;2.860;2023-04-28T12:19:56;101117.81;;;14.46;82.16
78845;BME280;68195;50.854;2.860;2023-04-28T12:22:25;101084.22;;;14.37;81.55
78845;BME280;68195;50.854;2.860;2023-04-28T12:25:06;101122.84;;;14.65;81.77
78845;BME280;68195;50.854;2.860;2023-04-28T12:27:33;101116.81;;;14.63;81.56
78845;BME280;68195;50.854;2.860;2023-04-28T12:29:59;101113.25;;;14.64;80.99
78845;BME280;68195;50.854;2.860;2023-04-28T12:32:38;101134.47;;;14.75;80.97
78845;BME280;68195;50.854;2.860;2023-04-28T12:35:04;101143.69;;;14.83;80.18
78845;BME280;68195;50.854;2.860;2023-04-28T12:37:32;101138.97;;;14.88;80.54
78845;BME280;68195;50.854;2.860;2023-04-28T12:39:58;101125.56;;;14.78;80.08
78845;BME280;68195;50.854;2.860;2023-04-28T12:42:23;101148.66;;;14.87;80.44
78845;BME280;68195;50.854;2.860;2023-04-28T12:44:49;101076.50;;;14.48;80.13
78845;BME280;68195;50.854;2.860;2023-04-28T12:47:14;101143.97;;;14.92;80.30
78845;BME280;68195;50.854;2.860;2023-04-28T12:49:45;101054.28;;;14.40;79.64
78845;BME280;68195;50.854;2.860;2023-04-28T12:52:12;101133.16;;;14.83;79.67
78845;BME280;68195;50.854;2.860;2023-04-28T12:54:37;101151.19;;;14.89;79.68
78845;BME280;68195;50.854;2.860;2023-04-28T12:57:06;101131.47;;;14.67;79.42
78845;BME280;68195;50.854;2.860;2023-04-28T12:59:34;101032.78;;;14.04;79.15
78845;BME280;68195;50.854;2.860;2023-04-28T13:01:59;101101.41;;;14.43;79.14
78845;BME280;68195;50.854;2.860;2023-04-28T13:04:24;101162.44;;;14.76;78.98
78845;BME280;68195;50.854;2.860;2023-04-28T13:06:52;101166.47;;;14.68;79.36
78845;BME280;68195;50.854;2.860;2023-04-28T13:09:18;101166.03;;;14.75;79.57
78845;BME280;68195;50.854;2.860;2023-04-28T13:11:43;101168.66;;;14.75;79.72
78845;BME280;68195;50.854;2.860;2023-04-28T13:14:11;101099.13;;;14.36;79.22
78845;BME280;68195;50.854;2.860;2023-04-28T13:16:39;101161.63;;;14.76;79.56
78845;BME280;68195;50.854;2.860;2023-04-28T13:19:06;101163.03;;;14.67;79.33